Time;durP1;ratioP1;P1;durP2;ratioP2;P2;SDS_P1;SDS_P2;PMS_P1;PMS_P2;Temp;Humidity;BMP_temperature;BMP_pressure;BME280_temperature;BME280_humidity;BME280_pressure;Samples;Min_cycle;Max_cycle;Signal;HPM_P1;HPM_P2
2022/05/31 05:06:25;;;;;;;;;3.75;3.75;;;;;16.53;36.33;100701.19;4990320;23;45374;-55
2022/05/31 05:08:50;;;;;;;;;5.00;5.00;;;;;16.52;36.20;100702.09;4980138;28;46308;-55
2022/05/31 05:11:19;;;;;;;;;6.00;5.00;;;;;16.50;36.31;100712.78;4979999;28;45330;-55
2022/05/31 05:13:48;;;;;;;;;7.50;5.00;;;;;16.47;35.99;100712.88;4980423;28;45274;-54
2022/05/31 05:16:15;;;;;;;;;6.75;6.75;;;;;16.46;36.54;100710.28;4961513;28;45251;-57
2022/05/31 05:18:41;;;;;;;;;5.75;5.75;;;;;16.44;36.50;100699.75;4960125;28;46337;-60
2022/05/31 05:21:10;;;;;;;;;5.75;4.75;;;;;16.47;36.56;100702.28;4960031;28;45361;-60
2022/05/31 05:23:35;;;;;;;;;10.25;5.75;;;;;16.45;36.52;100709.41;4960604;28;45343;-57
2022/05/31 05:26:01;;;;;;;;;6.50;6.50;;;;;16.45;36.32;100708.56;4960315;28;45384;-58
2022/05/31 05:31:22;;;;;;;;;10.00;9.00;;;;;16.42;36.45;100725.47;4960486;28;45260;-57
2022/05/31 05:39:11;;;;;;;;;9.25;7.50;;;;;16.39;36.50;100729.09;5931935;23;46160;-57
2022/05/31 05:41:36;;;;;;;;;6.50;6.50;;;;;16.40;36.34;100732.59;4933195;28;45526;-58
2022/05/31 05:44:02;;;;;;;;;7.50;6.00;;;;;16.39;36.97;100729.09;4963575;28;45410;-58
2022/05/31 05:46:28;;;;;;;;;6.25;5.25;;;;;16.39;36.97;100722.94;4930017;28;45471;-57
2022/05/31 05:48:54;;;;;;;;;6.50;6.50;;;;;16.42;37.04;100733.41;4963789;28;46963;-59
2022/05/31 05:51:26;;;;;;;;;8.00;6.50;;;;;16.44;36.79;100731.56;4967689;28;45453;-57
2022/05/31 05:53:52;;;;;;;;;4.50;3.75;;;;;16.44;37.06;100728.94;4958161;28;45466;-59
2022/05/31 05:56:18;;;;;;;;;7.75;5.25;;;;;16.49;36.63;100734.03;4962834;28;45458;-58
2022/05/31 05:58:45;;;;;;;;;5.75;5.75;;;;;16.51;36.81;100735.69;4963221;28;45399;-58
2022/05/31 06:01:18;;;;;;;;;9.25;7.00;;;;;16.54;36.88;100730.28;4963056;28;45398;-58
2022/05/31 06:03:57;;;;;;;;;4.75;4.75;;;;;16.57;36.68;100727.50;4945834;28;45383;-58
2022/05/31 06:06:24;;;;;;;;;6.50;5.00;;;;;16.62;36.74;100729.13;4962280;28;45590;-58
2022/05/31 06:09:05;;;;;;;;;8.00;6.00;;;;;16.65;36.91;100740.47;4962599;28;45499;-57
2022/05/31 06:11:54;;;;;;;;;5.25;5.25;;;;;16.71;36.88;100736.72;4945187;28;45632;-58
2022/05/31 06:14:27;;;;;;;;;98.00;88.33;;;;;16.73;37.06;100729.56;4953177;28;45240;-58
2022/05/31 06:17:04;;;;;;;;;66.00;52.00;;;;;16.79;37.03;100733.75;4945092;28;45772;-57
2022/05/31 06:19:34;;;;;;;;;11.50;9.50;;;;;16.80;37.05;100735.47;4962534;28;45527;-58
2022/05/31 06:22:00;;;;;;;;;17.25;13.00;;;;;16.87;36.85;100742.28;4962381;28;45686;-58
2022/05/31 06:24:31;;;;;;;;;36.25;30.75;;;;;16.93;36.77;100739.41;4929628;28;45334;-58
2022/05/31 06:26:56;;;;;;;;;13.75;12.50;;;;;16.97;36.58;100745.47;4962646;28;45473;-59
2022/05/31 06:29:22;;;;;;;;;11.50;9.25;;;;;17.02;36.86;100756.75;4962546;28;46960;-59
2022/05/31 06:31:47;;;;;;;;;7.00;7.00;;;;;17.05;36.80;100751.31;4962389;28;45448;-59
2022/05/31 06:34:12;;;;;;;;;6.00;6.00;;;;;17.10;37.27;100759.09;4945190;28;45411;-60
2022/05/31 06:36:39;;;;;;;;;8.00;7.75;;;;;17.16;37.18;100749.06;4961980;28;45477;-60
2022/05/31 06:39:05;;;;;;;;;6.50;6.50;;;;;17.19;37.05;100741.00;4967768;28;45546;-60
2022/05/31 06:41:31;;;;;;;;;8.50;7.25;;;;;17.25;37.18;100742.50;4975515;28;45252;-60
2022/05/31 06:43:59;;;;;;;;;10.75;6.00;;;;;17.29;37.22;100744.09;4951570;28;45266;-60
2022/05/31 06:46:25;;;;;;;;;7.75;7.50;;;;;17.39;36.96;100752.53;4958725;28;45249;-60
2022/05/31 06:48:50;;;;;;;;;7.25;7.00;;;;;17.45;37.07;100744.31;4977425;28;45877;-60
2022/05/31 06:56:48;;;;;;;;;6.00;6.00;;;;;17.50;37.03;100747.63;4975540;28;45338;-60
2022/05/31 06:56:50;;;;;;;;;8.75;6.25;;;;;17.68;37.09;100747.75;4979065;28;45543;-60
2022/05/31 06:59:15;;;;;;;;;5.50;5.50;;;;;17.75;37.23;100745.69;4973714;28;45376;-57
2022/05/31 07:01:41;;;;;;;;;9.00;6.50;;;;;17.79;37.03;100757.94;4974949;28;45501;-60
2022/05/31 07:04:06;;;;;;;;;6.00;6.00;;;;;17.86;36.83;100752.28;4976408;28;45899;-60
2022/05/31 07:06:33;;;;;;;;;9.25;7.00;;;;;17.93;36.78;100750.19;4977810;28;45180;-60
2022/05/31 07:08:59;;;;;;;;;6.50;5.00;;;;;18.00;37.00;100753.50;4975954;28;45469;-60
2022/05/31 07:11:25;;;;;;;;;6.50;6.25;;;;;18.07;36.85;100752.25;4976496;28;45184;-60
2022/05/31 07:13:51;;;;;;;;;6.00;5.75;;;;;18.14;37.03;100752.88;4975986;28;45430;-59
2022/05/31 07:16:16;;;;;;;;;7.00;7.00;;;;;18.21;36.69;100758.75;4977510;28;45339;-59
2022/05/31 07:18:42;;;;;;;;;7.00;6.25;;;;;18.27;36.81;100746.03;4975866;28;46164;-57
2022/05/31 07:21:08;;;;;;;;;8.00;6.00;;;;;18.31;36.72;100752.06;4959529;28;45317;-57
2022/05/31 07:23:34;;;;;;;;;12.75;12.00;;;;;18.39;36.54;100763.25;4975897;28;45445;-58
2022/05/31 07:26:00;;;;;;;;;5.75;5.25;;;;;18.45;36.70;100767.38;4976832;28;45449;-57
2022/05/31 07:28:28;;;;;;;;;11.25;10.00;;;;;18.50;36.52;100766.25;4975976;28;46191;-58
2022/05/31 07:30:54;;;;;;;;;7.00;7.00;;;;;18.47;36.63;100745.09;4976775;28;45259;-58
2022/05/31 07:33:20;;;;;;;;;8.00;8.00;;;;;18.61;36.46;100770.19;4958733;28;45416;-58
2022/05/31 07:35:45;;;;;;;;;10.00;8.50;;;;;18.65;36.89;100758.47;4976412;28;45193;-58
2022/05/31 07:38:11;;;;;;;;;7.00;5.50;;;;;18.72;36.37;100767.88;4962406;28;46353;-57
2022/05/31 07:40:37;;;;;;;;;6.75;5.50;;;;;18.76;36.30;100758.81;4977465;28;45465;-57
2022/05/31 07:43:02;;;;;;;;;33.25;31.00;;;;;18.80;36.35;100751.53;4971150;28;45261;-59
2022/05/31 07:45:28;;;;;;;;;10.00;8.00;;;;;18.86;36.57;100764.56;4960769;28;45296;-57
2022/05/31 07:47:53;;;;;;;;;8.25;7.50;;;;;18.91;36.64;100764.38;4973786;28;45344;-58
2022/05/31 07:50:19;;;;;;;;;56.00;45.25;;;;;18.96;36.29;100767.69;4976547;28;45405;-58
2022/05/31 07:52:48;;;;;;;;;10.25;10.25;;;;;18.99;36.29;100764.84;4974089;28;45329;-58
2022/05/31 07:55:13;;;;;;;;;8.75;8.25;;;;;19.03;36.49;100763.78;4959240;28;45450;-58
2022/05/31 08:00:23;;;;;;;;;48.50;38.75;;;;;19.12;36.17;100768.66;4961434;28;45235;-53
2022/05/31 08:02:48;;;;;;;;;36.25;31.75;;;;;19.16;36.42;100767.53;4961492;28;45894;-54
2022/05/31 08:05:14;;;;;;;;;22.50;19.75;;;;;19.23;36.35;100764.56;4961189;28;45297;-53
2022/05/31 08:07:40;;;;;;;;;10.25;9.00;;;;;19.27;36.10;100774.13;4961233;28;46021;-54
2022/05/31 08:10:07;;;;;;;;;12.50;8.50;;;;;19.31;36.05;100773.06;4961277;28;45422;-50
2022/05/31 08:12:32;;;;;;;;;10.25;9.50;;;;;19.37;36.18;100761.22;4968399;28;45286;-52
2022/05/31 08:14:57;;;;;;;;;8.00;8.00;;;;;19.40;36.17;100759.25;4962869;28;45405;-52
2022/05/31 08:17:23;;;;;;;;;9.50;6.25;;;;;19.46;35.96;100758.09;4961111;28;45579;-51
2022/05/31 08:19:48;;;;;;;;;7.50;5.25;;;;;19.52;35.93;100772.91;4960774;28;45413;-50
2022/05/31 08:22:13;;;;;;;;;7.00;5.00;;;;;19.56;36.06;100774.44;4961343;28;45308;-53
2022/05/31 08:24:39;;;;;;;;;8.00;8.00;;;;;19.57;36.04;100777.06;4960885;28;45548;-53
2022/05/31 08:27:05;;;;;;;;;8.50;7.25;;;;;19.59;35.64;100776.97;4960956;28;45493;-55
2022/05/31 08:29:30;;;;;;;;;6.25;5.50;;;;;19.62;36.07;100776.81;4960761;28;45462;-52
2022/05/31 08:31:58;;;;;;;;;7.75;7.00;;;;;19.63;36.02;100776.75;4961049;28;45180;-50
2022/05/31 08:34:26;;;;;;;;;7.25;6.00;;;;;19.65;35.67;100774.84;4960577;28;45456;-53
2022/05/31 08:36:51;;;;;;;;;6.00;5.75;;;;;19.66;35.83;100775.72;4960745;28;45343;-51
2022/05/31 08:39:16;;;;;;;;;7.50;6.25;;;;;19.68;35.72;100780.97;4947404;28;45309;-53
2022/05/31 08:41:47;;;;;;;;;5.00;4.25;;;;;19.69;35.21;100778.22;4961305;28;45413;-53
2022/05/31 08:44:24;;;;;;;;;7.75;7.75;;;;;19.71;35.14;100773.69;4960731;28;45250;-54
2022/05/31 08:47:36;;;;;;;;;6.50;6.50;;;;;19.73;35.56;100779.78;4952071;28;45445;-52
2022/05/31 08:52:59;;;;;;;;;4.75;4.75;;;;;19.74;35.48;100784.19;4960942;28;45292;-53
2022/05/31 08:58:55;;;;;;;;;5.00;5.00;;;;;19.72;35.21;100783.41;4960643;28;45457;-53
2022/05/31 09:01:24;;;;;;;;;5.25;5.25;;;;;19.70;34.98;100779.06;4967454;28;45304;-55
2022/05/31 09:03:55;;;;;;;;;7.25;5.50;;;;;19.71;35.18;100786.13;4961994;28;45240;-54
2022/05/31 09:06:46;;;;;;;;;3.00;3.00;;;;;19.72;34.85;100786.06;4960342;28;45428;-53
2022/05/31 09:09:31;;;;;;;;;5.50;4.50;;;;;19.75;35.04;100791.22;4960441;28;46357;-53
2022/05/31 09:12:38;;;;;;;;;4.25;4.25;;;;;19.79;35.16;100795.47;4960384;28;45405;-54
2022/05/31 09:15:16;;;;;;;;;5.50;5.50;;;;;19.84;34.96;100792.59;4962805;28;45494;-53
2022/05/31 09:17:51;;;;;;;;;8.75;7.50;;;;;19.87;35.05;100795.09;4963829;28;45482;-53
2022/05/31 09:20:36;;;;;;;;;6.00;5.00;;;;;19.91;34.95;100790.47;4963605;28;47231;-53
2022/05/31 09:23:01;;;;;;;;;7.25;4.25;;;;;19.92;34.84;100795.72;4963703;28;45315;-52
2022/05/31 09:25:34;;;;;;;;;3.00;3.00;;;;;19.92;34.79;100789.53;4963927;28;45312;-53
2022/05/31 09:28:06;;;;;;;;;3.50;3.50;;;;;19.96;35.05;100791.06;4963765;28;45336;-52
2022/05/31 09:30:40;;;;;;;;;6.50;6.00;;;;;19.97;34.68;100793.69;4963664;28;46374;-53
2022/05/31 09:33:15;;;;;;;;;5.75;5.75;;;;;19.98;34.87;100797.19;4964146;28;45307;-52
2022/05/31 09:35:57;;;;;;;;;3.50;3.00;;;;;20.02;34.58;100801.41;4963371;28;45263;-50
2022/05/31 09:38:38;;;;;;;;;6.25;5.00;;;;;20.07;34.96;100798.53;4955448;28;45806;-53
2022/05/31 09:41:15;;;;;;;;;6.50;4.00;;;;;20.13;34.38;100798.19;4960595;28;45435;-52
2022/05/31 09:43:50;;;;;;;;;4.50;4.50;;;;;20.21;34.30;100797.78;4963647;28;45356;-52
2022/05/31 09:46:38;;;;;;;;;4.75;4.00;;;;;20.26;34.41;100790.38;4954085;28;45265;-53
2022/05/31 09:49:20;;;;;;;;;8.50;5.00;;;;;20.32;34.32;100786.53;4963377;28;45296;-53
2022/05/31 09:51:45;;;;;;;;;5.00;3.75;;;;;20.36;34.58;100788.94;4963425;28;45550;-53
2022/05/31 09:57:08;;;;;;;;;5.00;3.00;;;;;20.50;34.64;100784.66;4963618;28;45305;-50
2022/05/31 10:00:12;;;;;;;;;5.00;4.25;;;;;20.57;34.11;100788.72;4963237;28;45327;-53
2022/05/31 10:02:37;;;;;;;;;5.25;4.25;;;;;20.62;34.33;100773.31;4952431;28;47143;-57
2022/05/31 10:05:21;;;;;;;;;6.50;5.00;;;;;20.77;34.28;100775.13;4974961;28;45195;-57
2022/05/31 10:07:48;;;;;;;;;4.25;4.25;;;;;20.87;33.85;100777.31;4972993;28;45299;-55
2022/05/31 10:10:17;;;;;;;;;5.00;3.25;;;;;20.98;33.86;100782.00;4972678;28;45485;-55
2022/05/31 10:12:56;;;;;;;;;3.00;3.00;;;;;21.04;33.99;100774.53;4968670;28;45450;-56
2022/05/31 10:15:31;;;;;;;;;6.50;4.25;;;;;21.09;33.84;100782.25;4940291;28;45209;-56
2022/05/31 10:18:04;;;;;;;;;5.00;4.00;;;;;21.18;33.15;100780.84;4951576;28;45466;-56
2022/05/31 10:20:30;;;;;;;;;4.50;3.75;;;;;21.20;33.48;100769.13;4966237;28;45423;-55
2022/05/31 10:22:56;;;;;;;;;3.50;2.75;;;;;21.29;33.40;100773.06;4969483;28;45246;-55
2022/05/31 10:25:35;;;;;;;;;3.00;3.00;;;;;21.39;33.21;100771.56;4948435;28;45842;-54
2022/05/31 10:28:05;;;;;;;;;4.00;4.00;;;;;21.51;32.92;100761.09;4972439;28;45680;-53
2022/05/31 10:30:31;;;;;;;;;3.75;3.75;;;;;21.67;32.87;100761.97;4959718;28;45438;-53
2022/05/31 10:33:04;;;;;;;;;3.25;3.25;;;;;21.87;33.05;100752.72;4971676;28;46403;-56
2022/05/31 10:35:33;;;;;;;;;2.50;2.25;;;;;22.17;33.47;100746.38;4971351;28;45311;-52
2022/05/31 10:38:28;;;;;;;;;3.25;2.25;;;;;22.58;33.31;100750.09;4968106;28;45479;-54
2022/05/31 10:41:03;;;;;;;;;3.25;2.50;;;;;22.92;33.46;100749.69;4976964;28;45224;-56
2022/05/31 10:43:45;;;;;;;;;2.75;2.75;;;;;23.25;33.08;100743.09;4970270;28;46017;-53
2022/05/31 10:46:30;;;;;;;;;5.00;4.25;;;;;23.48;32.79;100744.19;4958630;28;45316;-56
2022/05/31 10:49:03;;;;;;;;;2.00;2.00;;;;;23.72;32.50;100759.56;4956624;28;45213;-56
2022/05/31 10:52:01;;;;;;;;;5.25;3.25;;;;;23.88;32.25;100760.22;4962389;28;45316;-56
2022/05/31 10:54:29;;;;;;;;;3.75;3.75;;;;;23.91;31.92;100760.03;4950144;28;46405;-55
2022/05/31 10:57:14;;;;;;;;;3.50;3.50;;;;;23.94;32.08;100765.19;4962225;28;45232;-54
2022/05/31 10:59:53;;;;;;;;;2.25;1.00;;;;;23.92;31.48;100761.75;4962596;28;45230;-55
2022/05/31 11:02:51;;;;;;;;;3.00;2.00;;;;;23.86;31.55;100754.97;4962017;28;45367;-54
2022/05/31 11:05:25;;;;;;;;;2.50;2.25;;;;;23.80;31.20;100759.91;4961882;28;46231;-54
2022/05/31 11:11:44;;;;;;;;;2.00;1.75;;;;;23.58;30.53;100761.38;4953770;28;45305;-55
2022/05/31 11:14:44;;;;;;;;;4.00;2.50;;;;;23.52;30.42;100759.97;4940526;28;45333;-55
2022/05/31 11:17:32;;;;;;;;;4.00;4.00;;;;;23.50;30.56;100761.06;4950745;28;45364;-54
2022/05/31 11:20:19;;;;;;;;;2.25;2.25;;;;;23.56;30.63;100757.06;4961727;28;45381;-55
2022/05/31 11:23:21;;;;;;;;;7.00;6.75;;;;;23.65;30.40;100769.88;4962126;28;45351;-56
2022/05/31 11:25:52;;;;;;;;;6.00;5.25;;;;;23.71;30.93;100769.44;4926184;28;45456;-55
2022/05/31 11:28:26;;;;;;;;;1.50;1.50;;;;;23.75;29.87;100778.13;4948974;28;45428;-56
2022/05/31 11:31:13;;;;;;;;;2.25;2.00;;;;;23.70;29.91;100778.47;4961777;28;45228;-54
2022/05/31 11:33:51;;;;;;;;;2.75;2.75;;;;;23.69;30.00;100777.59;4962209;28;45408;-55
2022/05/31 11:36:35;;;;;;;;;2.00;1.00;;;;;23.65;29.78;100783.28;4943916;28;45284;-55
2022/05/31 11:39:29;;;;;;;;;2.00;2.00;;;;;23.57;29.57;100773.09;4945745;28;46144;-54
2022/05/31 11:42:21;;;;;;;;;2.50;1.75;;;;;23.57;29.78;100770.41;4961811;28;45310;-54
2022/05/31 11:45:05;;;;;;;;;2.75;2.00;;;;;23.57;29.58;100770.41;4947375;28;45491;-56
2022/05/31 11:47:46;;;;;;;;;1.25;1.25;;;;;23.72;29.88;100789.06;4958452;28;45349;-55
2022/05/31 11:50:47;;;;;;;;;3.25;2.00;;;;;23.95;29.93;100777.63;4961372;28;47236;-55
2022/05/31 11:53:15;;;;;;;;;1.00;1.00;;;;;24.26;29.86;100780.81;4936897;28;45244;-55
2022/05/31 11:55:57;;;;;;;;;3.75;2.25;;;;;24.52;29.94;100774.56;4961592;28;45252;-55
2022/05/31 11:58:33;;;;;;;;;2.25;2.25;;;;;24.69;29.51;100781.41;4960483;28;45422;-54
2022/05/31 12:01:10;;;;;;;;;2.25;2.25;;;;;24.80;29.61;100789.53;4949531;28;46101;-55
2022/05/31 12:04:00;;;;;;;;;4.00;4.00;;;;;24.78;29.03;100778.03;4961213;28;45216;-55
2022/05/31 12:06:43;;;;;;;;;1.75;1.75;;;;;24.79;29.45;100780.63;4961264;28;45576;-54
2022/05/31 12:09:31;;;;;;;;;3.00;2.75;;;;;24.75;29.10;100783.66;4950245;28;45503;-55
2022/05/31 12:12:03;;;;;;;;;2.50;2.00;;;;;24.66;28.87;100783.34;4961131;28;45581;-53
2022/05/31 12:14:31;;;;;;;;;3.00;3.00;;;;;24.53;29.03;100778.94;4961157;28;45356;-55
2022/05/31 12:16:57;;;;;;;;;5.00;2.00;;;;;24.41;29.19;100772.66;4961287;28;45364;-54
2022/05/31 12:19:36;;;;;;;;;3.00;3.00;;;;;24.31;28.54;100785.88;4960922;28;45270;-54
2022/05/31 12:22:24;;;;;;;;;2.00;2.00;;;;;24.22;29.05;100770.44;4950212;28;45402;-54
2022/05/31 12:24:55;;;;;;;;;3.00;2.50;;;;;24.08;29.02;100776.78;4960315;28;45312;-53
2022/05/31 12:27:30;;;;;;;;;4.00;3.00;;;;;23.98;29.11;100777.41;4961253;28;45450;-54
2022/05/31 12:30:02;;;;;;;;;2.25;2.25;;;;;23.86;28.41;100779.09;4948844;28;45368;-54
2022/05/31 12:32:38;;;;;;;;;2.00;2.00;;;;;23.78;28.94;100780.59;4960613;28;47202;-53
2022/05/31 12:35:07;;;;;;;;;3.75;3.50;;;;;23.62;28.67;100784.34;4960789;28;45520;-52
2022/05/31 12:38:11;;;;;;;;;1.00;1.00;;;;;23.51;28.90;100768.16;4959229;28;45335;-54
2022/05/31 12:40:47;;;;;;;;;2.00;2.00;;;;;23.42;28.72;100779.47;4913732;28;45448;-55
2022/05/31 12:43:47;;;;;;;;;5.00;4.00;;;;;23.30;29.20;100776.66;4920324;28;45575;-54
2022/05/31 12:46:35;;;;;;;;;2.00;2.00;;;;;23.20;28.74;100772.88;4942415;28;45521;-54
2022/05/31 12:49:05;;;;;;;;;2.75;2.25;;;;;23.10;29.05;100769.91;4960005;28;45462;-54
2022/05/31 12:51:31;;;;;;;;;3.00;1.50;;;;;23.08;29.08;100769.19;4959356;28;46013;-54
2022/05/31 12:54:06;;;;;;;;;2.00;2.00;;;;;23.12;29.06;100761.78;4960597;28;46999;-54
2022/05/31 12:56:36;;;;;;;;;2.00;2.00;;;;;23.15;29.01;100765.16;4960947;28;45268;-55
2022/05/31 12:59:03;;;;;;;;;2.00;1.25;;;;;23.16;29.08;100768.69;4960671;28;45338;-55
2022/05/31 13:01:28;;;;;;;;;1.00;1.00;;;;;23.15;28.80;100762.47;4960550;28;45271;-55
2022/05/31 13:04:05;;;;;;;;;4.50;4.50;;;;;23.19;28.85;100768.47;4960330;28;46746;-55
2022/05/31 13:06:58;;;;;;;;;8.50;4.25;;;;;23.16;29.02;100755.31;4960399;28;45541;-55
2022/05/31 13:09:23;;;;;;;;;17.00;15.75;;;;;23.33;28.79;100770.22;4960519;28;45300;-55
2022/05/31 13:20:30;;;;;;;;;4.50;4.00;;;;;24.57;28.78;100756.28;4949012;28;45411;-54
2022/05/31 13:23:13;;;;;;;;;4.25;4.25;;;;;24.93;28.21;100749.16;4960295;28;45414;-55
2022/05/31 13:25:38;;;;;;;;;3.00;3.00;;;;;25.44;28.59;100734.63;4959462;28;45411;-58
2022/05/31 13:28:03;;;;;;;;;9.75;9.25;;;;;25.95;28.14;100739.56;4958815;28;45201;-55
2022/05/31 13:30:41;;;;;;;;;1.50;1.50;;;;;26.45;27.99;100735.66;4943180;28;45290;-56
2022/05/31 13:33:17;;;;;;;;;5.50;4.00;;;;;26.91;27.53;100737.28;4948027;28;45373;-56
2022/05/31 13:35:42;;;;;;;;;2.00;2.00;;;;;27.12;27.34;100743.69;4942426;28;45980;-56
2022/05/31 13:38:20;;;;;;;;;3.50;1.25;;;;;27.23;27.35;100744.50;4953875;28;45339;-56
2022/05/31 13:40:54;;;;;;;;;1.50;1.50;;;;;27.37;27.62;100739.75;4954864;28;45339;-55
2022/05/31 13:43:22;;;;;;;;;0.00;0.00;;;;;27.52;27.25;100732.22;4960094;28;45360;-56
2022/05/31 13:45:53;;;;;;;;;2.00;2.00;;;;;27.75;26.74;100741.03;4952302;28;46212;-56
2022/05/31 13:48:21;;;;;;;;;3.00;2.00;;;;;27.92;26.63;100736.00;4960035;28;45423;-56
2022/05/31 13:50:56;;;;;;;;;2.75;2.00;;;;;27.99;26.82;100734.47;4959841;28;45229;-54
2022/05/31 13:53:22;;;;;;;;;1.25;0.75;;;;;28.00;26.59;100739.72;4959897;28;45351;-54
2022/05/31 13:55:55;;;;;;;;;1.00;1.00;;;;;27.97;26.83;100731.88;4959868;28;46206;-55
2022/05/31 13:58:23;;;;;;;;;2.75;1.75;;;;;28.06;26.48;100735.66;4959932;28;45402;-54
2022/05/31 14:00:49;;;;;;;;;1.00;1.00;;;;;28.26;26.63;100739.28;4961796;28;45338;-56
2022/05/31 14:03:32;;;;;;;;;2.00;2.00;;;;;28.56;26.13;100740.22;4963079;28;45543;-55
2022/05/31 14:06:03;;;;;;;;;3.00;1.00;;;;;28.85;25.72;100734.03;4946108;28;45274;-56
2022/05/31 14:08:57;;;;;;;;;1.50;1.50;;;;;29.29;25.76;100741.75;4963015;28;45275;-56
2022/05/31 14:11:27;;;;;;;;;1.00;1.00;;;;;29.58;25.76;100747.09;4945335;28;45396;-56
2022/05/31 14:13:57;;;;;;;;;1.00;1.00;;;;;29.60;25.25;100749.69;4963287;28;45328;-56
2022/05/31 14:16:32;;;;;;;;;2.00;2.00;;;;;29.53;25.71;100743.97;4945682;28;46993;-55
2022/05/31 14:18:59;;;;;;;;;3.50;1.75;;;;;29.48;25.64;100748.97;4962895;28;45410;-55
2022/05/31 14:21:27;;;;;;;;;2.50;2.00;;;;;29.40;25.68;100748.88;4962717;28;45399;-55
2022/05/31 14:23:53;;;;;;;;;0.50;0.00;;;;;29.27;25.71;100747.28;4962986;28;45553;-53
2022/05/31 14:26:21;;;;;;;;;2.25;2.00;;;;;29.17;25.52;100736.44;4962745;28;45227;-55
2022/05/31 14:29:17;;;;;;;;;1.25;1.00;;;;;29.04;25.54;100735.88;4962818;28;45401;-55
2022/05/31 14:31:49;;;;;;;;;2.00;2.00;;;;;28.80;25.44;100734.44;4962321;28;45347;-58
2022/05/31 14:34:23;;;;;;;;;1.75;1.50;;;;;28.59;25.60;100733.69;4966942;28;45527;-58
2022/05/31 14:36:50;;;;;;;;;2.00;2.00;;;;;28.40;25.50;100734.50;4967292;28;46462;-58
2022/05/31 14:39:22;;;;;;;;;3.00;1.00;;;;;28.20;25.16;100740.69;4955247;28;45212;-58
2022/05/31 14:41:48;;;;;;;;;3.50;2.00;;;;;27.96;25.66;100735.59;4965191;28;45232;-58
2022/05/31 14:44:46;;;;;;;;;1.00;1.00;;;;;27.81;25.68;100739.63;4966853;28;45192;-58
2022/05/31 14:47:25;;;;;;;;;2.00;2.00;;;;;27.77;24.93;100744.44;4963933;28;47213;-58
2022/05/31 14:50:14;;;;;;;;;1.25;1.00;;;;;27.90;25.76;100733.44;4972881;28;45271;-58
2022/05/31 14:52:49;;;;;;;;;0.50;0.50;;;;;27.95;25.44;100735.72;4963589;28;45167;-58
2022/05/31 14:55:21;;;;;;;;;1.25;1.00;;;;;27.88;25.56;100740.81;4975737;28;45370;-58
2022/05/31 15:00:56;;;;;;;;;0.75;0.75;;;;;27.53;25.14;100725.84;4967865;28;45280;-57
2022/05/31 15:03:24;;;;;;;;;3.25;2.00;;;;;27.52;25.33;100729.53;4975256;28;45338;-57
2022/05/31 15:05:58;;;;;;;;;2.00;2.00;;;;;27.38;25.64;100733.38;4972647;28;45473;-57
2022/05/31 15:08:36;;;;;;;;;4.00;4.00;;;;;27.28;25.76;100729.75;4965910;28;46443;-57
2022/05/31 15:19:32;;;;;;;;;0.00;0.00;;;;;26.58;25.67;100736.38;4974498;28;45532;-55
2022/05/31 15:21:58;;;;;;;;;1.00;1.00;;;;;26.47;25.39;100738.25;4972569;28;45323;-57
2022/05/31 15:24:29;;;;;;;;;3.75;2.00;;;;;26.34;25.62;100735.66;4974869;28;45492;-56
2022/05/31 15:26:58;;;;;;;;;1.25;1.00;;;;;26.35;25.63;100740.94;4973604;28;45517;-57
2022/05/31 15:29:25;;;;;;;;;1.00;1.00;;;;;26.42;25.64;100741.31;4955499;28;47566;-56
2022/05/31 15:31:50;;;;;;;;;1.00;1.00;;;;;26.50;25.99;100754.97;4973233;28;45457;-57
2022/05/31 15:34:16;;;;;;;;;2.00;1.00;;;;;26.61;26.01;100748.72;4965092;28;45411;-56
2022/05/31 15:36:43;;;;;;;;;1.25;1.00;;;;;26.78;25.98;100752.78;4957815;28;45225;-56
2022/05/31 15:39:14;;;;;;;;;1.00;1.00;;;;;26.95;26.61;100751.34;4948069;28;45249;-53
2022/05/31 15:41:40;;;;;;;;;3.00;3.00;;;;;27.09;25.95;100755.59;4961820;28;45405;-51
2022/05/31 15:44:08;;;;;;;;;2.00;2.00;;;;;27.15;26.54;100740.75;4961714;28;45558;-47
2022/05/31 15:46:35;;;;;;;;;2.00;2.00;;;;;27.20;26.16;100742.06;4954194;28;45272;-51
2022/05/31 15:49:02;;;;;;;;;5.25;2.75;;;;;27.11;26.22;100747.34;4961131;28;46277;-49
2022/05/31 15:51:31;;;;;;;;;2.00;1.25;;;;;27.06;26.51;100755.84;4961588;28;45486;-47
2022/05/31 15:54:01;;;;;;;;;1.00;1.00;;;;;26.97;25.48;100753.91;4961583;28;45272;-52
2022/05/31 15:56:32;;;;;;;;;1.00;1.00;;;;;26.90;26.13;100737.41;4961014;28;45462;-52
2022/05/31 15:58:58;;;;;;;;;1.00;1.00;;;;;26.85;26.10;100745.88;4960625;28;45418;-52
2022/05/31 16:01:24;;;;;;;;;1.25;1.25;;;;;26.88;25.74;100744.75;4960227;28;45311;-48
2022/05/31 16:03:49;;;;;;;;;1.50;1.00;;;;;26.93;25.88;100743.41;4961371;28;45488;-47
2022/05/31 16:06:18;;;;;;;;;2.00;1.00;;;;;27.00;26.25;100740.19;4957210;28;45268;-52
2022/05/31 16:08:44;;;;;;;;;2.00;2.00;;;;;27.09;25.99;100744.78;4950407;28;46095;-53
2022/05/31 16:11:12;;;;;;;;;2.00;2.00;;;;;27.12;26.23;100743.69;4973397;28;45307;-52
2022/05/31 16:13:37;;;;;;;;;2.00;2.00;;;;;27.12;25.63;100757.16;4970954;28;45263;-53
2022/05/31 16:16:03;;;;;;;;;1.00;1.00;;;;;27.12;25.55;100749.94;4975664;28;45196;-51
2022/05/31 16:18:29;;;;;;;;;1.00;1.00;;;;;27.16;26.17;100754.09;4980376;28;45228;-53
2022/05/31 16:20:54;;;;;;;;;1.75;1.00;;;;;27.17;25.91;100742.31;4980336;28;45234;-53
2022/05/31 16:23:22;;;;;;;;;2.75;2.75;;;;;27.24;25.77;100748.03;4959265;28;45185;-52
2022/05/31 16:25:48;;;;;;;;;2.00;2.00;;;;;27.19;26.17;100756.50;4957042;28;45287;-52
2022/05/31 16:28:13;;;;;;;;;0.25;0.25;;;;;27.14;25.45;100757.91;4962445;28;46483;-52
2022/05/31 16:30:53;;;;;;;;;1.00;1.00;;;;;27.09;25.59;100763.69;4980009;28;45362;-50
2022/05/31 16:33:21;;;;;;;;;3.00;1.00;;;;;27.08;25.52;100754.75;4980480;28;45343;-52
2022/05/31 16:35:50;;;;;;;;;1.75;1.75;;;;;27.09;26.06;100760.97;4979887;28;45536;-53
2022/05/31 16:41:10;;;;;;;;;6.00;5.00;;;;;27.20;26.19;100769.03;4966699;28;45258;-50
2022/05/31 16:43:37;;;;;;;;;19.75;12.50;;;;;27.26;26.46;100759.56;4973491;28;45413;-54
2022/05/31 16:46:03;;;;;;;;;2.75;2.75;;;;;27.29;26.49;100755.75;4958518;28;45509;-54
2022/05/31 16:48:29;;;;;;;;;13.75;10.75;;;;;27.34;26.57;100769.72;4975882;28;46419;-54
2022/05/31 16:50:55;;;;;;;;;8.00;7.50;;;;;27.37;26.93;100774.81;4971617;28;45292;-53
2022/05/31 16:53:20;;;;;;;;;5.75;5.75;;;;;27.39;26.87;100776.44;4976631;28;45342;-51
2022/05/31 16:55:46;;;;;;;;;5.75;5.00;;;;;27.37;26.44;100770.31;4955102;28;45296;-53
2022/05/31 16:58:12;;;;;;;;;9.50;6.75;;;;;27.42;26.49;100783.41;4976397;28;45346;-50
2022/05/31 17:00:38;;;;;;;;;3.00;3.00;;;;;27.46;26.49;100773.22;4972003;28;45338;-53
2022/05/31 17:03:04;;;;;;;;;3.75;3.50;;;;;27.45;27.10;100777.78;4975734;28;45271;-52
2022/05/31 17:05:31;;;;;;;;;5.00;5.00;;;;;27.44;26.87;100776.06;4971429;28;45319;-52
2022/05/31 17:16:08;;;;;;;;;4.00;4.00;;;;;27.35;27.59;100790.31;4963686;28;45405;-51
2022/05/31 17:18:35;;;;;;;;;2.25;2.25;;;;;27.32;26.90;100790.53;4972149;28;46324;-52
2022/05/31 17:21:03;;;;;;;;;3.75;3.75;;;;;27.29;26.90;100788.13;4976004;28;45272;-47
2022/05/31 17:23:41;;;;;;;;;5.00;3.25;;;;;27.28;26.84;100795.34;4972976;28;45226;-50
2022/05/31 17:26:15;;;;;;;;;5.00;4.00;;;;;27.27;26.63;100790.97;4975044;28;45301;-51
2022/05/31 17:28:49;;;;;;;;;3.25;2.75;;;;;27.23;26.83;100794.88;4975646;28;45283;-52
2022/05/31 17:31:15;;;;;;;;;3.25;3.25;;;;;27.18;27.28;100797.97;4972833;28;45383;-50
2022/05/31 17:33:42;;;;;;;;;4.25;4.25;;;;;27.15;27.28;100798.22;4952605;28;45320;-51
2022/05/31 17:36:08;;;;;;;;;2.25;2.25;;;;;27.12;26.87;100792.22;4967471;28;45469;-51
2022/05/31 17:38:39;;;;;;;;;4.75;4.75;;;;;27.09;27.54;100788.81;4963812;28;46315;-49
2022/05/31 17:41:22;;;;;;;;;4.50;4.00;;;;;27.08;27.48;100794.31;4964901;28;45455;-49
2022/05/31 17:43:49;;;;;;;;;4.00;4.00;;;;;27.08;26.91;100791.63;4967170;28;45469;-50
2022/05/31 17:46:14;;;;;;;;;4.00;3.00;;;;;27.05;27.17;100800.81;4962503;28;45450;-49
2022/05/31 17:48:40;;;;;;;;;4.00;3.00;;;;;26.98;27.28;100798.78;4967836;28;46167;-50
2022/05/31 17:51:06;;;;;;;;;4.75;2.75;;;;;26.95;27.87;100796.34;4961406;28;45394;-51